• Join FlightAware (Why Join?)
  • Login
  • US Flag 
10:08AM EDT


 

Airport Tracker/Info


-or-


 

Live Flight TrackerFlight Track Log ✈ ASH1070 ✈ 04-Apr-2012 ✈ PHOG / OGG - PHKO / KOA

Flight Track Log - Related Links

Times and Time Zones

All times are in EDT time to prevent confusion due to time zone crossing. See the ASH1070 flight status page for this flight to view local times or setup timezone preferences in your user account.

Time Position Orientation Groundspeed Altitude Reporting Facility
EDT Latitude Longitude Course Direction KTS MPH feet Rate Location/Type
02:58PM 20.9167 -156.4000 62° Northeast 170 196 1,700  Level Honolulu Center
02:59PM 20.9333 -156.3667 126° Southeast 200 230 4,300 2,700 Climbing Honolulu Center
03:00PM 20.9000 -156.3167 105° East 210 242 7,200 2,400 Climbing Honolulu Center
03:01PM 20.8833 -156.2500 102° East 230 265 9,200 1,980 Climbing Honolulu Center
03:02PM 20.8667 -156.1667 90° East 290 334 11,200 1,860 Climbing Honolulu Center
03:03PM 20.8667 -156.0833 118° Southeast 300 345 13,000 1,680 Climbing Honolulu Center
03:04PM 20.8333 -156.0167 171° South 330 380 14,600 1,740 Climbing Honolulu Center
03:05PM 20.7333 -156.0000 180° South 320 368 16,500 1,140 Climbing Honolulu Center
03:06PM 20.6500 -156.0000 189° South 320 368 17,000 240 Climbing Honolulu Center
03:07PM 20.5500 -156.0167 180° South 320 368 17,000 -720 Level Honolulu Center
03:08PM 20.4667 -156.0167 180° South 320 368 15,600 -1,740 Descending Honolulu Center
03:09PM 20.3833 -156.0167 180° South 320 368 13,500 -2,040 Descending Honolulu Center
03:10PM 20.3000 -156.0167 180° South 300 345 11,500 -2,100 Descending Honolulu Center
03:11PM 20.2167 -156.0167 180° South 280 322 9,300 -2,340 Descending Honolulu Center
03:12PM 20.1333 -156.0167 191° South 290 334 6,900 -2,280 Descending Honolulu Center
03:13PM 20.0500 -156.0333 167° South 280 322 4,800 -1,500 Descending Honolulu Center
03:14PM 19.9833 -156.0167 180° South 250 288 4,000 -660 Descending Honolulu Center
03:15PM 19.9167 -156.0167 193° South 220 253 3,500 -960 Descending Honolulu Center
03:16PM 19.8500 -156.0333 180° South 220 253 2,100 -1,200 Descending Honolulu Center
03:17PM 19.8000 -156.0333 180° South 160 184 1,100 -900 Descending Honolulu Center
03:18PM 19.7667 -156.0333 180° South 140 161 400 -720 Descending Honolulu Center